Time;durP1;ratioP1;P1;durP2;ratioP2;P2;SDS_P1;SDS_P2;PMS_P1;PMS_P2;Temp;Humidity;BMP_temperature;BMP_pressure;BME280_temperature;BME280_humidity;BME280_pressure;Samples;Min_cycle;Max_cycle;Signal;HPM_P1;HPM_P2
2022/03/28 00:03:32;;;;;;;;;;;;;;;;;;;;;
2022/03/28 00:09:43;;;;;;;;;;;;;;;;;;;;;
2022/03/28 00:12:54;;;;;;;;;;;;;;;;;;;;;
2022/03/28 00:15:25;;;;;;;;;;;10.10;83.70;;;;;;5076247;28;20393;-93
2022/03/28 00:18:08;;;;;;;;;;;10.10;83.90;;;;;;5067644;28;19955;-93
2022/03/28 00:27:19;;;;;;;;;;;10.00;84.30;;;;;;5019100;28;20322;-91
2022/03/28 00:32:47;;;;;;;;;;;10.00;84.60;;;;;;4995318;28;19922;-92
2022/03/28 00:35:50;;;;;;;;;;;10.00;84.80;;;;;;5082534;28;19919;-92
2022/03/28 00:38:41;;;;;;;;;;;9.90;84.80;;;;;;5112855;28;20411;-94
2022/03/28 00:44:28;;;;;;;;;;;;;;;;;;;;;
2022/03/28 00:47:18;;;;;;;;;;;9.80;85.50;;;;;;5100189;28;19987;-92
2022/03/28 00:56:07;;;;;;;;;;;9.80;85.70;;;;;;5094077;28;19912;-92
2022/03/28 00:58:58;;;;;;;;;;;9.80;85.60;;;;;;5103771;28;19967;-94
2022/03/28 01:04:51;;;;;;;;;;;9.70;85.90;;;;;;5082854;28;19908;-93
2022/03/28 01:07:24;;;;;;;;;;;9.70;86.00;;;;;;5080055;28;19908;-92
2022/03/28 01:10:10;;;;;;;;;;;9.60;86.20;;;;;;5098183;28;19915;-92
2022/03/28 01:15:58;;;;;;;;;;;9.50;86.50;;;;;;5092664;28;19912;-90
2022/03/28 01:18:29;;;;;;;;;;;9.50;87.00;;;;;;5081828;28;19959;-92
2022/03/28 01:21:20;;;;;;;;;;;9.50;87.40;;;;;;5097564;28;19913;-92
2022/03/28 01:24:19;;;;;;;;;;;;;;;;;;;;;
2022/03/28 01:27:36;;;;;;;;;;;9.50;86.90;;;;;;5091908;28;19912;-87
2022/03/28 01:30:08;;;;;;;;;;;9.50;87.10;;;;;;5084590;28;19998;-87
2022/03/28 01:32:47;;;;;;;;;;;;;;;;;;;;;
2022/03/28 01:35:24;;;;;;;;;;;9.40;87.20;;;;;;5097181;28;19908;-87
2022/03/28 01:38:12;;;;;;;;;;;9.40;87.50;;;;;;5095621;28;19909;-88
2022/03/28 01:41:11;;;;;;;;;;;;;;;;;;;;;
2022/03/28 01:43:48;;;;;;;;;;;9.40;87.80;;;;;;5091940;28;20354;-87
2022/03/28 01:46:44;;;;;;;;;;;9.40;87.70;;;;;;5095241;28;19912;-87
2022/03/28 01:49:28;;;;;;;;;;;9.30;87.60;;;;;;5080739;28;20011;-87
2022/03/28 01:52:20;;;;;;;;;;;;;;;;;;;;;
2022/03/28 01:55:23;;;;;;;;;;;9.30;87.70;;;;;;5096287;28;20285;-87
2022/03/28 01:57:56;;;;;;;;;;;;;;;;;;;;;
2022/03/28 02:03:33;;;;;;;;;;;9.20;88.30;;;;;;5096368;28;20000;-87
2022/03/28 02:06:07;;;;;;;;;;;9.20;88.40;;;;;;5119192;28;19990;-90
2022/03/28 02:09:08;;;;;;;;;;;;;;;;;;;;;
2022/03/28 02:14:31;;;;;;;;;;;9.10;88.30;;;;;;5088433;28;19974;-87
2022/03/28 02:17:02;;;;;;;;;;;9.10;88.40;;;;;;5095177;28;19908;-87
2022/03/28 02:20:06;;;;;;;;;;;;;;;;;;;;;
2022/03/28 02:22:35;;;;;;;;;;;9.00;88.50;;;;;;5096379;28;19908;-86
2022/03/28 02:25:04;;;;;;;;;;;9.00;88.60;;;;;;5094691;28;19934;-86
2022/03/28 02:27:53;;;;;;;;;;;9.00;88.60;;;;;;5094758;28;19912;-87
2022/03/28 02:30:31;;;;;;;;;;;;;;;;;;;;;
2022/03/28 02:33:07;;;;;;;;;;;8.90;88.80;;;;;;5095631;28;19916;-87
2022/03/28 02:35:41;;;;;;;;;;;8.90;88.90;;;;;;5094566;28;19909;-87
2022/03/28 02:38:10;;;;;;;;;;;8.80;89.00;;;;;;5094328;28;19913;-87
2022/03/28 02:40:44;;;;;;;;;;;8.80;89.10;;;;;;5094207;28;19912;-86
2022/03/28 02:43:12;;;;;;;;;;;8.70;89.10;;;;;;5093932;28;19953;-87
2022/03/28 02:45:48;;;;;;;;;;;8.80;89.30;;;;;;5094593;28;20380;-87
2022/03/28 02:48:16;;;;;;;;;;;8.80;89.30;;;;;;5094385;28;19908;-87
2022/03/28 02:51:12;;;;;;;;;;;8.70;89.30;;;;;;5093993;28;19919;-86
2022/03/28 02:56:50;;;;;;;;;;;8.60;89.40;;;;;;5095183;28;19919;-87
2022/03/28 02:59:28;;;;;;;;;;;;;;;;;;;;;
2022/03/28 03:01:56;;;;;;;;;;;8.60;89.70;;;;;;5095402;28;19934;-87
2022/03/28 03:04:25;;;;;;;;;;;8.60;89.90;;;;;;5093918;28;19908;-87
2022/03/28 03:06:51;;;;;;;;;;;8.60;89.90;;;;;;5093574;28;19938;-86
2022/03/28 03:09:24;;;;;;;;;;;8.50;89.90;;;;;;5076731;28;19913;-86
2022/03/28 03:11:53;;;;;;;;;;;8.50;90.00;;;;;;5077935;28;19912;-88
2022/03/28 03:14:21;;;;;;;;;;;8.50;90.00;;;;;;5093798;28;20002;-87
2022/03/28 03:16:49;;;;;;;;;;;8.50;90.10;;;;;;5094015;28;19908;-86
2022/03/28 03:19:45;;;;;;;;;;;;;;;;;;;;;
2022/03/28 03:22:47;;;;;;;;;;;8.40;90.10;;;;;;5093922;28;19916;-88
2022/03/28 03:25:30;;;;;;;;;;;8.40;90.10;;;;;;5093632;28;19908;-87
2022/03/28 03:28:20;;;;;;;;;;;8.30;90.20;;;;;;5094087;28;19915;-87
2022/03/28 03:30:51;;;;;;;;;;;8.30;90.20;;;;;;5093468;28;19959;-87
2022/03/28 03:33:33;;;;;;;;;;;8.30;90.30;;;;;;5093920;28;20385;-86
2022/03/28 03:36:09;;;;;;;;;;;8.30;90.30;;;;;;5107890;28;19896;-85
2022/03/28 03:41:30;;;;;;;;;;;8.20;90.30;;;;;;5111437;28;19908;-88
2022/03/28 03:44:01;;;;;;;;;;;8.20;90.40;;;;;;5100559;28;19920;-87
2022/03/28 03:49:25;;;;;;;;;;;8.10;90.40;;;;;;5088954;28;20380;-86
2022/03/28 03:52:11;;;;;;;;;;;8.10;90.50;;;;;;5093578;28;19908;-87
2022/03/28 03:54:49;;;;;;;;;;;;;;;;;;;;;
2022/03/28 03:57:24;;;;;;;;;;;;;;;;;;;;;
2022/03/28 04:00:13;;;;;;;;;;;;;;;;;;;;;
2022/03/28 04:02:51;;;;;;;;;;;;;;;;;;;;;
2022/03/28 04:05:19;;;;;;;;;;;8.00;90.60;;;;;;5093519;28;19912;-88
2022/03/28 04:07:53;;;;;;;;;;;7.90;90.60;;;;;;5093328;28;19994;-87
2022/03/28 04:10:30;;;;;;;;;;;7.90;90.60;;;;;;5093420;28;19916;-87
2022/03/28 04:13:18;;;;;;;;;;;7.90;90.60;;;;;;5076503;28;19928;-87
2022/03/28 04:15:59;;;;;;;;;;;7.90;90.60;;;;;;5077102;28;20316;-87
2022/03/28 04:18:30;;;;;;;;;;;7.80;90.60;;;;;;5092892;28;19912;-87
2022/03/28 04:21:27;;;;;;;;;;;7.70;90.60;;;;;;5096497;28;19908;-87
2022/03/28 04:24:20;;;;;;;;;;;7.70;90.60;;;;;;5096811;28;19919;-87
2022/03/28 04:27:09;;;;;;;;;;;7.70;90.70;;;;;;5090102;28;20377;-86
2022/03/28 04:30:00;;;;;;;;;;;7.60;90.60;;;;;;5096775;28;19912;-86
2022/03/28 04:32:38;;;;;;;;;;;;;;;;;;;;;
2022/03/28 04:35:05;;;;;;;;;;;7.50;90.70;;;;;;5098269;28;19958;-86
2022/03/28 04:37:44;;;;;;;;;;;7.50;90.70;;;;;;5096515;28;19912;-87
2022/03/28 04:40:29;;;;;;;;;;;7.40;90.70;;;;;;5097110;28;20316;-87
2022/03/28 04:43:12;;;;;;;;;;;;;;;;;;;;;
2022/03/28 04:45:47;;;;;;;;;;;7.40;90.80;;;;;;5098114;28;19920;-86
2022/03/28 04:48:31;;;;;;;;;;;;;;;;;;;;;
2022/03/28 04:57:06;;;;;;;;;;;;;;;;;;;;;
2022/03/28 04:59:55;;;;;;;;;;;7.30;91.10;;;;;;5098544;28;19914;-88
2022/03/28 05:02:38;;;;;;;;;;;7.30;91.10;;;;;;5048003;28;19958;-89
2022/03/28 05:14:06;;;;;;;;;;;;;;;;;;;;;
2022/03/28 05:16:34;;;;;;;;;;;7.30;91.30;;;;;;5119161;28;19923;-85
2022/03/28 05:19:11;;;;;;;;;;;7.20;91.40;;;;;;5097708;28;19912;-87
2022/03/28 05:21:55;;;;;;;;;;;7.30;91.50;;;;;;5096695;28;19931;-87
2022/03/28 05:24:32;;;;;;;;;;;7.20;91.50;;;;;;5080709;28;20045;-88
2022/03/28 05:27:00;;;;;;;;;;;7.20;91.60;;;;;;5080754;28;19961;-87
2022/03/28 05:29:36;;;;;;;;;;;;;;;;;;;;;
2022/03/28 05:32:09;;;;;;;;;;;7.30;91.60;;;;;;5097883;28;19908;-86
2022/03/28 05:34:37;;;;;;;;;;;7.30;91.60;;;;;;5096340;28;19916;-88
2022/03/28 05:37:12;;;;;;;;;;;7.20;91.70;;;;;;5096152;28;20273;-87
2022/03/28 05:39:46;;;;;;;;;;;7.30;91.70;;;;;;5095760;28;19939;-87
2022/03/28 05:42:14;;;;;;;;;;;7.20;91.70;;;;;;5079429;28;19956;-87
2022/03/28 05:44:50;;;;;;;;;;;7.20;91.70;;;;;;5094774;28;19920;-87
2022/03/28 05:47:36;;;;;;;;;;;7.20;91.70;;;;;;5096711;28;19912;-88
2022/03/28 05:50:53;;;;;;;;;;;;;;;;;;;;;
2022/03/28 05:59:20;;;;;;;;;;;;;;;;;;;;;
2022/03/28 06:01:51;;;;;;;;;;;7.10;91.90;;;;;;5095747;28;19912;-88
2022/03/28 06:04:25;;;;;;;;;;;7.10;91.90;;;;;;5095328;28;19908;-90
2022/03/28 06:06:51;;;;;;;;;;;7.10;92.00;;;;;;5095051;28;19919;-86
2022/03/28 06:09:29;;;;;;;;;;;7.10;92.00;;;;;;5094923;28;19916;-86
2022/03/28 06:11:57;;;;;;;;;;;7.10;92.00;;;;;;5094952;28;19908;-86
2022/03/28 06:14:23;;;;;;;;;;;7.10;92.00;;;;;;5095140;28;19916;-86
2022/03/28 06:16:54;;;;;;;;;;;7.10;92.00;;;;;;5094499;28;20369;-85
2022/03/28 06:19:22;;;;;;;;;;;7.10;92.00;;;;;;5078619;28;19912;-86
2022/03/28 06:21:50;;;;;;;;;;;7.10;92.10;;;;;;5095023;28;19915;-86
2022/03/28 06:24:18;;;;;;;;;;;7.10;92.20;;;;;;5095001;28;19976;-86
2022/03/28 06:26:44;;;;;;;;;;;7.10;92.20;;;;;;5096069;28;19908;-85
2022/03/28 06:29:18;;;;;;;;;;;7.00;92.30;;;;;;5095058;28;20257;-85
2022/03/28 06:31:46;;;;;;;;;;;7.00;92.20;;;;;;5094977;28;19915;-86
2022/03/28 06:34:21;;;;;;;;;;;7.00;92.20;;;;;;5097042;28;19949;-86
2022/03/28 06:36:49;;;;;;;;;;;6.90;92.20;;;;;;5103664;28;19908;-86
2022/03/28 06:39:15;;;;;;;;;;;6.90;92.20;;;;;;5115325;28;19984;-85
2022/03/28 06:41:51;;;;;;;;;;;6.80;92.20;;;;;;5118198;28;19904;-88
2022/03/28 06:44:31;;;;;;;;;;;6.80;92.20;;;;;;5099231;28;19924;-86
2022/03/28 06:46:57;;;;;;;;;;;6.80;92.20;;;;;;5104453;28;19912;-83
2022/03/28 06:49:22;;;;;;;;;;;6.80;92.20;;;;;;5096642;28;19973;-86
2022/03/28 06:52:07;;;;;;;;;;;6.80;92.30;;;;;;5095189;28;19915;-86
2022/03/28 06:54:36;;;;;;;;;;;6.80;92.30;;;;;;5095794;28;19916;-88
2022/03/28 06:57:07;;;;;;;;;;;6.80;92.30;;;;;;5095006;28;19972;-87
2022/03/28 06:59:33;;;;;;;;;;;6.90;92.30;;;;;;5077756;28;19912;-87
2022/03/28 07:02:30;;;;;;;;;;;6.90;92.30;;;;;;5094322;28;19915;-87
2022/03/28 07:05:08;;;;;;;;;;;6.90;92.30;;;;;;5094827;28;19991;-88
2022/03/28 07:07:46;;;;;;;;;;;7.00;92.20;;;;;;5094785;28;19908;-88
2022/03/28 07:10:23;;;;;;;;;;;7.10;92.20;;;;;;5094458;28;20002;-87
2022/03/28 07:13:03;;;;;;;;;;;7.10;92.30;;;;;;5096109;28;19923;-89
2022/03/28 07:15:32;;;;;;;;;;;7.10;92.50;;;;;;5078716;28;19920;-88
2022/03/28 07:18:17;;;;;;;;;;;7.10;92.30;;;;;;5094220;28;19908;-90
2022/03/28 07:20:43;;;;;;;;;;;7.20;92.30;;;;;;5094554;28;19908;-87
2022/03/28 07:23:17;;;;;;;;;;;7.20;92.20;;;;;;5093974;28;19908;-86
2022/03/28 07:25:57;;;;;;;;;;;7.10;92.20;;;;;;5095297;28;20419;-86
2022/03/28 07:28:35;;;;;;;;;;;7.20;92.20;;;;;;5094456;28;19909;-86
2022/03/28 07:31:13;;;;;;;;;;;;;;;;;;;;;
2022/03/28 07:33:47;;;;;;;;;;;7.20;92.00;;;;;;5094829;28;19920;-86
2022/03/28 07:36:49;;;;;;;;;;;7.20;92.10;;;;;;5093678;28;19987;-87
2022/03/28 07:39:34;;;;;;;;;;;7.20;92.10;;;;;;5094388;28;20366;-88
2022/03/28 07:42:13;;;;;;;;;;;;;;;;;;;;;
2022/03/28 07:44:57;;;;;;;;;;;7.30;92.10;;;;;;5095029;28;19926;-88
2022/03/28 07:47:25;;;;;;;;;;;7.30;92.10;;;;;;5095513;28;19958;-87
2022/03/28 07:49:52;;;;;;;;;;;7.30;92.10;;;;;;5076844;28;19918;-86
2022/03/28 07:52:23;;;;;;;;;;;7.40;92.10;;;;;;5093499;28;19991;-87
2022/03/28 07:55:17;;;;;;;;;;;7.40;92.10;;;;;;5095808;28;20361;-89
2022/03/28 08:11:49;;;;;;;;;;;;;;;;;;;;;
2022/03/28 08:14:17;;;;;;;;;;;7.50;92.30;;;;;;4983431;28;19905;-88
2022/03/28 08:16:48;;;;;;;;;;;7.60;92.30;;;;;;5122067;28;19967;-89
2022/03/28 08:19:28;;;;;;;;;;;7.70;92.30;;;;;;5120257;28;19912;-87
2022/03/28 08:21:54;;;;;;;;;;;7.70;92.60;;;;;;5117225;28;19898;-88
2022/03/28 08:24:20;;;;;;;;;;;7.70;92.30;;;;;;5104221;28;19951;-87
2022/03/28 08:26:46;;;;;;;;;;;7.70;92.30;;;;;;5099166;28;19915;-87
2022/03/28 08:29:19;;;;;;;;;;;7.80;92.40;;;;;;5097666;28;19960;-87
2022/03/28 08:32:24;;;;;;;;;;;7.80;92.40;;;;;;5097803;28;19908;-88
2022/03/28 08:34:51;;;;;;;;;;;7.90;92.40;;;;;;5096906;28;19927;-87
2022/03/28 08:37:24;;;;;;;;;;;7.90;92.40;;;;;;5097533;28;19908;-88
2022/03/28 08:40:16;;;;;;;;;;;8.00;92.50;;;;;;5081623;28;19912;-87
2022/03/28 08:42:42;;;;;;;;;;;8.00;92.50;;;;;;5082377;28;20281;-87
2022/03/28 08:45:13;;;;;;;;;;;8.10;92.50;;;;;;5097947;28;19920;-89
2022/03/28 08:50:36;;;;;;;;;;;8.30;92.40;;;;;;5077961;28;19920;-87
2022/03/28 08:56:19;;;;;;;;;;;8.50;92.30;;;;;;4983836;28;19998;-87
2022/03/28 08:59:05;;;;;;;;;;;8.50;92.20;;;;;;5088136;28;20273;-87
2022/03/28 09:01:31;;;;;;;;;;;8.50;92.20;;;;;;5096001;28;19999;-86
2022/03/28 09:04:07;;;;;;;;;;;8.50;92.30;;;;;;5096205;28;20311;-86
2022/03/28 09:06:36;;;;;;;;;;;8.60;92.30;;;;;;5095990;28;20339;-86
2022/03/28 09:09:11;;;;;;;;;;;8.60;92.20;;;;;;5095903;28;19919;-86
2022/03/28 09:11:44;;;;;;;;;;;8.60;92.20;;;;;;5096283;28;19961;-86
2022/03/28 09:14:16;;;;;;;;;;;8.60;92.30;;;;;;5096156;28;20409;-87
2022/03/28 09:16:42;;;;;;;;;;;8.60;92.30;;;;;;5095832;28;19908;-87
2022/03/28 09:19:28;;;;;;;;;;;8.60;92.40;;;;;;5096171;28;19954;-87
2022/03/28 09:22:01;;;;;;;;;;;8.70;92.50;;;;;;5096608;28;19965;-87
2022/03/28 09:24:41;;;;;;;;;;;8.70;92.50;;;;;;5096244;28;19909;-87
2022/03/28 09:27:23;;;;;;;;;;;8.60;92.60;;;;;;5097339;28;19908;-88
2022/03/28 09:30:11;;;;;;;;;;;8.70;92.50;;;;;;5095968;28;20264;-87
2022/03/28 09:42:26;;;;;;;;;;;9.20;92.20;;;;;;4989847;28;19934;-87
2022/03/28 09:45:19;;;;;;;;;;;9.30;92.20;;;;;;5020527;28;19929;-91
2022/03/28 09:48:01;;;;;;;;;;;9.40;92.10;;;;;;5045259;28;19979;-87
2022/03/28 09:50:38;;;;;;;;;;;9.40;92.10;;;;;;5119965;28;19920;-87
2022/03/28 09:53:17;;;;;;;;;;;9.40;92.10;;;;;;5107184;28;19924;-87
2022/03/28 09:58:56;;;;;;;;;;;;;;;;;;;;;
2022/03/28 10:01:40;;;;;;;;;;;9.60;92.00;;;;;;5096860;28;19918;-87
2022/03/28 10:04:12;;;;;;;;;;;9.70;92.00;;;;;;5095680;28;19908;-86
2022/03/28 10:06:50;;;;;;;;;;;;;;;;;;;;;
2022/03/28 10:09:26;;;;;;;;;;;;;;;;;;;;;
2022/03/28 10:14:50;;;;;;;;;;;;;;;;;;;;;
2022/03/28 10:17:19;;;;;;;;;;;10.20;91.70;;;;;;5095069;28;20289;-87
2022/03/28 10:20:05;;;;;;;;;;;10.30;91.70;;;;;;5096346;28;19959;-86
2022/03/28 10:22:39;;;;;;;;;;;10.30;91.70;;;;;;5095315;28;19912;-87
2022/03/28 10:25:45;;;;;;;;;;;10.40;91.60;;;;;;5077747;28;19916;-87
2022/03/28 10:28:28;;;;;;;;;;;10.40;91.60;;;;;;5092384;28;19930;-87
2022/03/28 10:31:15;;;;;;;;;;;10.60;91.60;;;;;;5094844;28;19930;-88
2022/03/28 10:33:58;;;;;;;;;;;10.60;91.50;;;;;;5094764;28;19916;-88
2022/03/28 10:36:38;;;;;;;;;;;10.70;91.40;;;;;;5079091;28;20007;-87
2022/03/28 10:39:23;;;;;;;;;;;10.80;91.40;;;;;;5094495;28;19912;-87
2022/03/28 10:42:13;;;;;;;;;;;10.90;91.30;;;;;;5094380;28;19916;-87
2022/03/28 10:45:07;;;;;;;;;;;10.90;91.20;;;;;;5093941;28;20011;-88
2022/03/28 10:48:00;;;;;;;;;;;11.00;91.30;;;;;;5084325;28;19908;-86
2022/03/28 10:50:34;;;;;;;;;;;11.10;91.20;;;;;;5095157;28;19914;-86
2022/03/28 10:53:19;;;;;;;;;;;11.20;91.10;;;;;;5094338;28;19920;-89
2022/03/28 10:58:41;;;;;;;;;;;11.30;90.90;;;;;;5095226;28;20350;-86
2022/03/28 11:01:12;;;;;;;;;;;11.30;90.90;;;;;;5094226;28;19999;-86
2022/03/28 11:04:07;;;;;;;;;;;11.40;90.90;;;;;;5094095;28;19908;-86
2022/03/28 11:07:07;;;;;;;;;;;11.50;90.90;;;;;;5072447;28;19951;-86
2022/03/28 11:10:06;;;;;;;;;;;11.70;90.90;;;;;;5094526;28;19915;-86
2022/03/28 11:12:51;;;;;;;;;;;;;;;;;;;;;
2022/03/28 11:15:24;;;;;;;;;;;11.80;90.80;;;;;;5101008;28;20452;-86
2022/03/28 11:18:11;;;;;;;;;;;11.90;90.80;;;;;;5105052;28;19908;-86
2022/03/28 11:20:47;;;;;;;;;;;12.00;90.70;;;;;;5099982;28;19914;-86
2022/03/28 11:23:16;;;;;;;;;;;12.10;90.50;;;;;;5115647;28;19919;-86
2022/03/28 11:25:55;;;;;;;;;;;12.20;90.50;;;;;;5110865;28;19920;-86
2022/03/28 11:28:34;;;;;;;;;;;12.30;90.30;;;;;;5102723;28;20007;-86
2022/03/28 11:31:33;;;;;;;;;;;12.40;90.20;;;;;;5099042;28;20022;-86
2022/03/28 11:34:09;;;;;;;;;;;12.50;90.00;;;;;;5098287;28;19916;-87
2022/03/28 11:36:40;;;;;;;;;;;12.60;89.70;;;;;;5095916;28;19951;-85
2022/03/28 11:39:25;;;;;;;;;;;12.70;89.50;;;;;;5078020;28;20022;-87
2022/03/28 11:42:03;;;;;;;;;;;12.80;89.50;;;;;;5077608;28;19920;-87
2022/03/28 11:44:46;;;;;;;;;;;12.80;89.40;;;;;;5077520;28;20479;-87
2022/03/28 11:47:17;;;;;;;;;;;12.90;89.20;;;;;;5095279;28;19908;-87
2022/03/28 11:49:55;;;;;;;;;;;13.00;89.10;;;;;;5077451;28;19916;-87
2022/03/28 11:52:37;;;;;;;;;;;13.10;88.90;;;;;;5093666;28;20324;-86
2022/03/28 11:55:24;;;;;;;;;;;13.10;88.60;;;;;;5093389;28;19930;-86
2022/03/28 12:00:48;;;;;;;;;;;;;;;;;;;;;
2022/03/28 12:03:17;;;;;;;;;;;13.30;88.10;;;;;;5094945;28;19930;-87
2022/03/28 12:06:03;;;;;;;;;;;;;;;;;;;;;
2022/03/28 12:08:43;;;;;;;;;;;13.40;87.70;;;;;;5093686;28;20289;-87
2022/03/28 12:11:22;;;;;;;;;;;13.50;87.20;;;;;;5076892;28;19912;-88
2022/03/28 12:13:54;;;;;;;;;;;13.50;87.00;;;;;;5093591;28;19916;-87
2022/03/28 12:16:50;;;;;;;;;;;13.60;87.10;;;;;;5093265;28;19951;-86
2022/03/28 12:19:39;;;;;;;;;;;13.60;86.80;;;;;;5092981;28;20358;-87
2022/03/28 12:22:23;;;;;;;;;;;;;;;;;;;;;
2022/03/28 12:25:05;;;;;;;;;;;13.80;87.00;;;;;;5094442;28;19908;-87
2022/03/28 12:27:40;;;;;;;;;;;13.80;87.10;;;;;;5092798;28;19909;-86
2022/03/28 12:30:22;;;;;;;;;;;;;;;;;;;;;
2022/03/28 12:35:45;;;;;;;;;;;;;;;;;;;;;
2022/03/28 12:38:29;;;;;;;;;;;14.20;87.00;;;;;;5093938;28;19912;-89
2022/03/28 12:41:10;;;;;;;;;;;;;;;;;;;;;
2022/03/28 12:46:33;;;;;;;;;;;14.30;86.50;;;;;;5096464;28;19924;-86
2022/03/28 12:49:16;;;;;;;;;;;14.30;86.40;;;;;;5096525;28;19914;-86
2022/03/28 12:51:44;;;;;;;;;;;14.40;85.10;;;;;;5096437;28;19916;-86
2022/03/28 12:54:14;;;;;;;;;;;14.50;85.20;;;;;;5096459;28;19916;-87
2022/03/28 12:57:07;;;;;;;;;;;14.50;85.30;;;;;;5096847;28;19915;-87
2022/03/28 12:59:36;;;;;;;;;;;14.60;85.40;;;;;;5084039;28;19961;-86
2022/03/28 13:02:21;;;;;;;;;;;14.60;85.30;;;;;;5096843;28;19912;-87
2022/03/28 13:05:12;;;;;;;;;;;14.70;85.40;;;;;;5105488;28;19959;-86
2022/03/28 13:10:26;;;;;;;;;;;14.80;85.30;;;;;;5079026;28;19900;-88
2022/03/28 13:13:03;;;;;;;;;;;14.80;85.30;;;;;;5061397;28;19919;-86
2022/03/28 13:21:15;;;;;;;;;;;15.00;85.20;;;;;;5097201;28;19908;-86
2022/03/28 13:24:05;;;;;;;;;;;15.10;85.10;;;;;;5096222;28;19916;-86
2022/03/28 13:32:30;;;;;;;;;;;15.20;84.50;;;;;;5085941;28;19908;-86
2022/03/28 13:35:01;;;;;;;;;;;15.30;84.50;;;;;;5095768;28;19908;-86
2022/03/28 13:37:36;;;;;;;;;;;15.40;84.50;;;;;;5095653;28;20365;-86
2022/03/28 13:40:19;;;;;;;;;;;;;;;;;;;;;
2022/03/28 13:42:46;;;;;;;;;;;15.40;84.00;;;;;;5095503;28;19920;-86
2022/03/28 13:45:31;;;;;;;;;;;;;;;;;;;;;
2022/03/28 13:48:10;;;;;;;;;;;15.40;83.10;;;;;;5096434;28;19908;-86
2022/03/28 13:50:55;;;;;;;;;;;15.40;82.80;;;;;;5078456;28;19943;-86
2022/03/28 13:53:31;;;;;;;;;;;15.50;83.00;;;;;;5096367;28;20002;-86
2022/03/28 13:56:09;;;;;;;;;;;;;;;;;;;;;
2022/03/28 13:58:55;;;;;;;;;;;15.50;83.40;;;;;;5096408;28;19930;-86
2022/03/28 14:01:57;;;;;;;;;;;;;;;;;;;;;
2022/03/28 14:05:04;;;;;;;;;;;15.50;82.40;;;;;;5091753;28;20380;-85
2022/03/28 14:11:07;;;;;;;;;;;;;;;;;;;;;
2022/03/28 14:16:54;;;;;;;;;;;;;;;;;;;;;
2022/03/28 14:19:23;;;;;;;;;;;15.60;82.60;;;;;;5096027;28;19908;-84
2022/03/28 14:27:35;;;;;;;;;;;15.80;82.40;;;;;;5095591;28;19948;-85
2022/03/28 14:30:27;;;;;;;;;;;15.80;82.50;;;;;;5078285;28;19916;-86
2022/03/28 14:33:13;;;;;;;;;;;15.90;82.50;;;;;;5093911;28;19915;-85
2022/03/28 14:36:06;;;;;;;;;;;15.90;82.40;;;;;;5077872;28;19912;-85
2022/03/28 14:38:51;;;;;;;;;;;16.00;82.20;;;;;;5094406;28;19912;-86
2022/03/28 14:41:37;;;;;;;;;;;;;;;;;;;;;
2022/03/28 14:44:10;;;;;;;;;;;16.10;81.90;;;;;;5095388;28;19916;-85
2022/03/28 14:49:32;;;;;;;;;;;16.20;80.50;;;;;;5096841;28;19963;-86
2022/03/28 14:52:38;;;;;;;;;;;16.20;79.10;;;;;;5097036;28;19934;-86
2022/03/28 14:55:29;;;;;;;;;;;16.30;76.30;;;;;;5110875;28;19896;-86
2022/03/28 14:58:16;;;;;;;;;;;16.40;77.20;;;;;;5118880;28;19897;-87
2022/03/28 15:00:56;;;;;;;;;;;16.40;77.00;;;;;;5118720;28;19939;-88
2022/03/28 15:06:27;;;;;;;;;;;16.40;76.60;;;;;;5100028;28;20016;-86
2022/03/28 15:09:20;;;;;;;;;;;16.40;76.60;;;;;;5094171;28;19957;-87
2022/03/28 15:12:06;;;;;;;;;;;16.40;76.00;;;;;;5093966;28;19947;-86
2022/03/28 15:15:07;;;;;;;;;;;;;;;;;;;;;
2022/03/28 15:17:42;;;;;;;;;;;16.40;75.70;;;;;;5092501;28;19908;-85
2022/03/28 15:20:10;;;;;;;;;;;16.40;76.10;;;;;;5076091;28;19912;-86
2022/03/28 15:23:10;;;;;;;;;;;16.40;76.50;;;;;;5094031;28;19908;-89
2022/03/28 15:25:58;;;;;;;;;;;16.50;76.50;;;;;;5094380;28;20342;-87
2022/03/28 15:29:04;;;;;;;;;;;16.50;76.40;;;;;;5095591;28;19919;-88
2022/03/28 15:31:43;;;;;;;;;;;16.60;76.00;;;;;;5091952;28;19909;-88
2022/03/28 15:37:26;;;;;;;;;;;;;;;;;;;;;
2022/03/28 15:46:12;;;;;;;;;;;16.40;76.00;;;;;;5071543;28;19924;-87
2022/03/28 15:49:01;;;;;;;;;;;16.40;75.70;;;;;;5094792;28;19955;-86
2022/03/28 15:51:58;;;;;;;;;;;16.40;75.60;;;;;;5093902;28;19908;-87
2022/03/28 15:54:43;;;;;;;;;;;;;;;;;;;;;
2022/03/28 15:57:45;;;;;;;;;;;;;;;;;;;;;
2022/03/28 16:00:22;;;;;;;;;;;16.30;75.70;;;;;;5091288;28;19915;-86
2022/03/28 16:06:11;;;;;;;;;;;16.30;76.10;;;;;;5085541;28;19934;-86
2022/03/28 16:09:21;;;;;;;;;;;16.20;76.10;;;;;;5050415;28;19962;-86
2022/03/28 16:14:50;;;;;;;;;;;16.20;76.10;;;;;;5093872;28;19915;-86
2022/03/28 16:17:21;;;;;;;;;;;16.20;75.70;;;;;;5096992;28;19908;-86
2022/03/28 16:19:48;;;;;;;;;;;16.10;75.50;;;;;;5096982;28;19912;-86
2022/03/28 16:22:16;;;;;;;;;;;16.10;75.70;;;;;;5098459;28;20269;-86
2022/03/28 16:25:44;;;;;;;;;;;16.10;76.00;;;;;;5097756;28;19920;-86
2022/03/28 16:27:56;;;;;;;;;;;16.10;76.30;;;;;;5088126;28;19995;-86
2022/03/28 16:30:34;;;;;;;;;;;16.10;76.20;;;;;;5096721;28;19912;-85
2022/03/28 16:33:12;;;;;;;;;;;16.10;74.90;;;;;;5096534;28;19916;-86
2022/03/28 16:35:46;;;;;;;;;;;16.00;74.10;;;;;;5080442;28;20010;-88
2022/03/28 16:38:30;;;;;;;;;;;;;;;;;;;;;
2022/03/28 16:41:15;;;;;;;;;;;15.90;72.60;;;;;;5097236;28;19919;-87
2022/03/28 16:43:53;;;;;;;;;;;15.90;73.50;;;;;;5083582;28;19920;-86
2022/03/28 16:46:28;;;;;;;;;;;15.90;74.30;;;;;;5103075;28;19908;-85
2022/03/28 16:48:59;;;;;;;;;;;15.80;74.90;;;;;;5103899;28;19900;-85
2022/03/28 16:51:34;;;;;;;;;;;;;;;;;;;;;
2022/03/28 16:54:02;;;;;;;;;;;15.70;75.60;;;;;;5120970;28;19943;-84
2022/03/28 16:56:45;;;;;;;;;;;15.60;75.90;;;;;;5110753;28;19913;-86
2022/03/28 16:59:13;;;;;;;;;;;15.60;76.20;;;;;;5097176;28;19909;-86
2022/03/28 17:01:41;;;;;;;;;;;15.60;76.50;;;;;;5096330;28;20021;-85
2022/03/28 17:04:09;;;;;;;;;;;15.50;77.20;;;;;;5079834;28;20262;-85
2022/03/28 17:06:43;;;;;;;;;;;15.50;76.80;;;;;;5096206;28;19908;-85
2022/03/28 17:18:51;;;;;;;;;;;;;;;;;;;;;
2022/03/28 17:24:38;;;;;;;;;;;15.10;78.60;;;;;;5053573;28;19917;-89
2022/03/28 17:27:19;;;;;;;;;;;;;;;;;;;;;
2022/03/28 17:29:54;;;;;;;;;;;;;;;;;;;;;
2022/03/28 17:32:28;;;;;;;;;;;15.00;78.60;;;;;;5059028;28;20016;-90
2022/03/28 17:35:14;;;;;;;;;;;14.90;78.80;;;;;;5042800;28;20051;-89
2022/03/28 17:37:50;;;;;;;;;;;14.90;79.00;;;;;;5101330;28;19961;-89
2022/03/28 17:40:48;;;;;;;;;;;14.80;78.90;;;;;;5099138;28;19908;-88
2022/03/28 17:43:19;;;;;;;;;;;14.80;78.90;;;;;;5076272;28;19943;-89
2022/03/28 17:45:58;;;;;;;;;;;;;;;;;;;;;
2022/03/28 17:49:00;;;;;;;;;;;;;;;;;;;;;
2022/03/28 17:51:49;;;;;;;;;;;;;;;;;;;;;
2022/03/28 17:57:07;;;;;;;;;;;14.50;79.80;;;;;;5077732;28;19916;-88
2022/03/28 17:59:58;;;;;;;;;;;;;;;;;;;;;
2022/03/28 18:02:54;;;;;;;;;;;14.30;80.30;;;;;;5100296;28;20012;-89
2022/03/28 18:08:37;;;;;;;;;;;14.20;80.70;;;;;;5094095;28;19915;-90
2022/03/28 18:14:33;;;;;;;;;;;;;;;;;;;;;
2022/03/28 18:17:09;;;;;;;;;;;14.00;77.40;;;;;;5100113;28;19999;-90
2022/03/28 18:19:37;;;;;;;;;;;14.00;77.90;;;;;;5100227;28;19989;-88
2022/03/28 18:22:28;;;;;;;;;;;13.90;77.80;;;;;;5083874;28;19912;-89
2022/03/28 18:25:27;;;;;;;;;;;;;;;;;;;;;
2022/03/28 18:27:55;;;;;;;;;;;13.80;77.30;;;;;;5101378;28;20405;-89
2022/03/28 18:30:36;;;;;;;;;;;;;;;;;;;;;
2022/03/28 18:33:40;;;;;;;;;;;13.80;76.40;;;;;;5112183;28;19931;-90
2022/03/28 18:36:34;;;;;;;;;;;13.80;76.20;;;;;;5118676;28;19896;-90
2022/03/28 18:39:18;;;;;;;;;;;;;;;;;;;;;
2022/03/28 18:48:24;;;;;;;;;;;13.60;75.20;;;;;;5011651;28;19927;-90
2022/03/28 18:51:02;;;;;;;;;;;13.50;74.90;;;;;;5100115;28;20316;-91
2022/03/28 18:53:32;;;;;;;;;;;13.50;75.00;;;;;;5084147;28;19939;-91
2022/03/28 18:56:34;;;;;;;;;;;;;;;;;;;;;
2022/03/28 18:59:11;;;;;;;;;;;13.50;74.80;;;;;;5100469;28;19964;-90
2022/03/28 19:01:50;;;;;;;;;;;13.40;74.90;;;;;;5098672;28;19914;-90
2022/03/28 19:04:28;;;;;;;;;;;;;;;;;;;;;
2022/03/28 19:07:18;;;;;;;;;;;13.40;75.00;;;;;;5099747;28;19975;-89
2022/03/28 19:19:33;;;;;;;;;;;;;;;;;;;;;
2022/03/28 19:22:18;;;;;;;;;;;;;;;;;;;;;
2022/03/28 19:24:47;;;;;;;;;;;13.20;75.70;;;;;;4978527;28;19924;-89
2022/03/28 19:27:23;;;;;;;;;;;13.10;75.90;;;;;;4962043;28;19914;-90
2022/03/28 19:33:00;;;;;;;;;;;;;;;;;;;;;
2022/03/28 19:35:46;;;;;;;;;;;13.10;76.30;;;;;;5098864;28;19918;-90
2022/03/28 19:38:26;;;;;;;;;;;13.00;76.50;;;;;;5097811;28;20285;-89
2022/03/28 19:41:28;;;;;;;;;;;;;;;;;;;;;
2022/03/28 19:47:13;;;;;;;;;;;12.90;77.50;;;;;;5088366;28;19920;-90
2022/03/28 19:49:45;;;;;;;;;;;12.80;77.90;;;;;;5100635;28;19919;-89
2022/03/28 19:55:43;;;;;;;;;;;;;;;;;;;;;
2022/03/28 19:58:42;;;;;;;;;;;;;;;;;;;;;
2022/03/28 20:01:36;;;;;;;;;;;12.70;79.20;;;;;;5104889;28;20433;-90
2022/03/28 20:04:22;;;;;;;;;;;12.60;79.60;;;;;;5101122;28;19924;-89
2022/03/28 20:06:59;;;;;;;;;;;12.50;79.90;;;;;;5102520;28;19908;-88
2022/03/28 20:09:25;;;;;;;;;;;12.50;79.80;;;;;;5103258;28;19912;-87
2022/03/28 20:14:46;;;;;;;;;;;12.50;80.00;;;;;;5112718;28;19908;-88
2022/03/28 20:17:20;;;;;;;;;;;12.40;80.00;;;;;;5122289;28;19904;-87
2022/03/28 20:19:46;;;;;;;;;;;12.40;80.30;;;;;;5122010;28;19989;-87
2022/03/28 20:22:12;;;;;;;;;;;12.40;80.50;;;;;;5121680;28;19919;-87
2022/03/28 20:25:05;;;;;;;;;;;;;;;;;;;;;